sensor_id;sensor_type;location;lat;lon;timestamp;pressure;altitude;pressure_sealevel;temperature;humidity
68822;BME280;55834;50.870;4.606;2023-04-06T00:01:09;101100.31;;;5.12;44.08
68822;BME280;55834;50.870;4.606;2023-04-06T00:03:35;101105.56;;;5.10;43.81
68822;BME280;55834;50.870;4.606;2023-04-06T00:06:00;101103.78;;;4.98;44.63
68822;BME280;55834;50.870;4.606;2023-04-06T00:08:26;101089.81;;;5.03;45.28
68822;BME280;55834;50.870;4.606;2023-04-06T00:10:52;101092.44;;;5.03;44.95
68822;BME280;55834;50.870;4.606;2023-04-06T00:13:17;101098.47;;;4.49;45.85
68822;BME280;55834;50.870;4.606;2023-04-06T00:15:43;101089.72;;;4.43;46.78
68822;BME280;55834;50.870;4.606;2023-04-06T00:18:08;101086.31;;;4.67;46.65
68822;BME280;55834;50.870;4.606;2023-04-06T00:20:34;101081.06;;;4.74;45.49
68822;BME280;55834;50.870;4.606;2023-04-06T00:22:59;101083.69;;;4.76;45.36
68822;BME280;55834;50.870;4.606;2023-04-06T00:25:25;101075.84;;;4.78;45.21
68822;BME280;55834;50.870;4.606;2023-04-06T00:27:50;101080.16;;;4.57;45.69
68822;BME280;55834;50.870;4.606;2023-04-06T00:30:16;101078.47;;;4.73;45.37
68822;BME280;55834;50.870;4.606;2023-04-06T00:32:41;101066.28;;;4.81;44.45
68822;BME280;55834;50.870;4.606;2023-04-06T00:35:07;101069.75;;;4.88;44.24
68822;BME280;55834;50.870;4.606;2023-04-06T00:37:32;101062.78;;;4.94;44.13
68822;BME280;55834;50.870;4.606;2023-04-06T00:39:58;101061.03;;;4.99;44.04
68822;BME280;55834;50.870;4.606;2023-04-06T00:42:24;101068.88;;;5.03;44.58
68822;BME280;55834;50.870;4.606;2023-04-06T00:44:57;101057.56;;;5.08;43.66
68822;BME280;55834;50.870;4.606;2023-04-06T00:47:23;101051.44;;;4.86;43.90
68822;BME280;55834;50.870;4.606;2023-04-06T00:49:51;101043.56;;;4.89;44.48
68822;BME280;55834;50.870;4.606;2023-04-06T00:52:17;101059.28;;;4.97;44.56
68822;BME280;55834;50.870;4.606;2023-04-06T00:54:42;101050.56;;;4.98;44.65
68822;BME280;55834;50.870;4.606;2023-04-06T00:57:08;101045.34;;;4.93;44.69
68822;BME280;55834;50.870;4.606;2023-04-06T00:59:34;101040.97;;;4.83;45.26
68822;BME280;55834;50.870;4.606;2023-04-06T01:01:59;101041.84;;;4.70;44.88
68822;BME280;55834;50.870;4.606;2023-04-06T01:04:25;101037.47;;;4.86;45.13
68822;BME280;55834;50.870;4.606;2023-04-06T01:06:50;101040.13;;;4.84;44.64
68822;BME280;55834;50.870;4.606;2023-04-06T01:09:16;101041.84;;;4.85;44.61
68822;BME280;55834;50.870;4.606;2023-04-06T01:11:42;101031.38;;;4.82;44.55
68822;BME280;55834;50.870;4.606;2023-04-06T01:14:08;101036.63;;;4.88;44.70
68822;BME280;55834;50.870;4.606;2023-04-06T01:16:34;101031.38;;;4.97;44.04
68822;BME280;55834;50.870;4.606;2023-04-06T01:18:59;101027.91;;;5.09;44.19
68822;BME280;55834;50.870;4.606;2023-04-06T01:21:25;101032.25;;;5.04;44.15
68822;BME280;55834;50.870;4.606;2023-04-06T01:23:50;101019.19;;;5.04;44.66
68822;BME280;55834;50.870;4.606;2023-04-06T01:26:16;101015.66;;;5.01;44.04
68822;BME280;55834;50.870;4.606;2023-04-06T01:28:42;101013.97;;;5.13;43.79
68822;BME280;55834;50.870;4.606;2023-04-06T01:31:08;101008.72;;;5.07;44.01
68822;BME280;55834;50.870;4.606;2023-04-06T01:33:34;101004.34;;;5.14;43.95
68822;BME280;55834;50.870;4.606;2023-04-06T01:36:00;101008.72;;;4.87;43.85
68822;BME280;55834;50.870;4.606;2023-04-06T01:38:26;101002.59;;;4.94;43.98
68822;BME280;55834;50.870;4.606;2023-04-06T01:40:52;101006.06;;;5.03;44.06
68822;BME280;55834;50.870;4.606;2023-04-06T01:43:18;101002.59;;;5.14;43.02
68822;BME280;55834;50.870;4.606;2023-04-06T01:45:43;100999.09;;;5.20;43.16
68822;BME280;55834;50.870;4.606;2023-04-06T01:48:09;101001.72;;;5.28;43.32
68822;BME280;55834;50.870;4.606;2023-04-06T01:50:34;100992.97;;;5.32;43.23
68822;BME280;55834;50.870;4.606;2023-04-06T01:53:00;100993.84;;;5.29;43.63
68822;BME280;55834;50.870;4.606;2023-04-06T01:55:25;100989.50;;;5.14;44.15
68822;BME280;55834;50.870;4.606;2023-04-06T01:57:51;100985.16;;;5.09;43.79
68822;BME280;55834;50.870;4.606;2023-04-06T02:00:16;100994.75;;;5.22;43.59
68822;BME280;55834;50.870;4.606;2023-04-06T02:02:41;100991.22;;;5.29;43.29
68822;BME280;55834;50.870;4.606;2023-04-06T02:05:08;100989.47;;;5.27;43.44
68822;BME280;55834;50.870;4.606;2023-04-06T02:07:34;100985.13;;;5.18;43.84
68822;BME280;55834;50.870;4.606;2023-04-06T02:09:59;100981.66;;;5.19;43.92
68822;BME280;55834;50.870;4.606;2023-04-06T02:12:25;100979.03;;;5.25;43.82
68822;BME280;55834;50.870;4.606;2023-04-06T02:14:50;100979.91;;;5.30;43.82
68822;BME280;55834;50.870;4.606;2023-04-06T02:17:16;100974.66;;;5.23;43.92
68822;BME280;55834;50.870;4.606;2023-04-06T02:19:41;100971.16;;;5.24;44.16
68822;BME280;55834;50.870;4.606;2023-04-06T02:22:07;100970.31;;;5.22;44.02
68822;BME280;55834;50.870;4.606;2023-04-06T02:24:32;100968.56;;;5.19;44.31
68822;BME280;55834;50.870;4.606;2023-04-06T02:26:57;100966.81;;;5.23;44.36
68822;BME280;55834;50.870;4.606;2023-04-06T02:29:23;100965.06;;;5.23;44.90
68822;BME280;55834;50.870;4.606;2023-04-06T02:31:48;100959.88;;;5.08;44.74
68822;BME280;55834;50.870;4.606;2023-04-06T02:34:13;100964.22;;;5.03;44.80
68822;BME280;55834;50.870;4.606;2023-04-06T02:36:45;100958.13;;;4.84;44.69
68822;BME280;55834;50.870;4.606;2023-04-06T02:39:11;100961.63;;;4.66;44.95
68822;BME280;55834;50.870;4.606;2023-04-06T02:41:36;100957.28;;;4.46;45.99
68822;BME280;55834;50.870;4.606;2023-04-06T02:44:02;100949.44;;;4.48;44.41
68822;BME280;55834;50.870;4.606;2023-04-06T02:46:28;100950.31;;;4.47;43.83
68822;BME280;55834;50.870;4.606;2023-04-06T02:48:53;100957.28;;;4.54;44.13
68822;BME280;55834;50.870;4.606;2023-04-06T02:51:19;100947.69;;;4.70;44.20
68822;BME280;55834;50.870;4.606;2023-04-06T02:53:44;100954.63;;;4.83;43.72
68822;BME280;55834;50.870;4.606;2023-04-06T02:56:10;100950.25;;;4.94;43.41
68822;BME280;55834;50.870;4.606;2023-04-06T02:58:35;100947.66;;;4.99;43.60
68822;BME280;55834;50.870;4.606;2023-04-06T03:01:01;100941.53;;;5.05;44.25
68822;BME280;55834;50.870;4.606;2023-04-06T03:03:26;100941.56;;;5.08;43.78
68822;BME280;55834;50.870;4.606;2023-04-06T03:05:51;100938.03;;;5.06;43.84
68822;BME280;55834;50.870;4.606;2023-04-06T03:08:17;100934.53;;;5.04;43.68
68822;BME280;55834;50.870;4.606;2023-04-06T03:10:42;100941.53;;;4.86;43.59
68822;BME280;55834;50.870;4.606;2023-04-06T03:13:08;100937.19;;;4.90;43.78
68822;BME280;55834;50.870;4.606;2023-04-06T03:15:33;100936.31;;;4.91;43.58
68822;BME280;55834;50.870;4.606;2023-04-06T03:17:58;100940.66;;;4.96;43.29
68822;BME280;55834;50.870;4.606;2023-04-06T03:20:24;100931.09;;;4.95;43.37
68822;BME280;55834;50.870;4.606;2023-04-06T03:22:49;100925.00;;;4.87;43.42
68822;BME280;55834;50.870;4.606;2023-04-06T03:25:14;100932.00;;;4.70;43.07
68822;BME280;55834;50.870;4.606;2023-04-06T03:27:40;100921.50;;;4.85;43.64
68822;BME280;55834;50.870;4.606;2023-04-06T03:30:06;100931.06;;;4.97;43.01
68822;BME280;55834;50.870;4.606;2023-04-06T03:32:31;100916.22;;;5.01;43.24
68822;BME280;55834;50.870;4.606;2023-04-06T03:34:57;100917.13;;;4.92;43.83
68822;BME280;55834;50.870;4.606;2023-04-06T03:37:22;100924.13;;;4.78;44.63
68822;BME280;55834;50.870;4.606;2023-04-06T03:39:47;100918.03;;;4.77;44.40
68822;BME280;55834;50.870;4.606;2023-04-06T03:42:13;100917.13;;;4.75;44.45
68822;BME280;55834;50.870;4.606;2023-04-06T03:44:38;100912.81;;;4.72;44.32
68822;BME280;55834;50.870;4.606;2023-04-06T03:47:03;100917.16;;;4.78;44.20
68822;BME280;55834;50.870;4.606;2023-04-06T03:49:29;100915.41;;;4.85;44.78
68822;BME280;55834;50.870;4.606;2023-04-06T03:51:56;100916.25;;;4.84;43.84
68822;BME280;55834;50.870;4.606;2023-04-06T03:54:21;100915.41;;;4.85;44.21
68822;BME280;55834;50.870;4.606;2023-04-06T03:56:47;100910.16;;;4.91;44.17
68822;BME280;55834;50.870;4.606;2023-04-06T03:59:12;100903.19;;;4.88;43.73
68822;BME280;55834;50.870;4.606;2023-04-06T04:01:37;100905.78;;;4.94;43.53
68822;BME280;55834;50.870;4.606;2023-04-06T04:04:04;100909.25;;;4.99;43.78
68822;BME280;55834;50.870;4.606;2023-04-06T04:06:30;100908.38;;;5.02;43.38
68822;BME280;55834;50.870;4.606;2023-04-06T04:08:55;100913.59;;;5.10;43.58
68822;BME280;55834;50.870;4.606;2023-04-06T04:11:21;100917.13;;;5.07;43.41
68822;BME280;55834;50.870;4.606;2023-04-06T04:13:46;100912.75;;;5.09;43.47
68822;BME280;55834;50.870;4.606;2023-04-06T04:16:11;100918.84;;;5.11;43.86
68822;BME280;55834;50.870;4.606;2023-04-06T04:18:37;100917.13;;;5.09;43.41
68822;BME280;55834;50.870;4.606;2023-04-06T04:21:04;100916.22;;;5.04;43.50
68822;BME280;55834;50.870;4.606;2023-04-06T04:23:29;100919.75;;;4.96;44.09
68822;BME280;55834;50.870;4.606;2023-04-06T04:25:55;100917.13;;;4.89;44.20
68822;BME280;55834;50.870;4.606;2023-04-06T04:28:20;100915.41;;;4.85;43.94
68822;BME280;55834;50.870;4.606;2023-04-06T04:30:46;100915.44;;;4.75;43.48
68822;BME280;55834;50.870;4.606;2023-04-06T04:33:11;100914.53;;;4.86;43.92
68822;BME280;55834;50.870;4.606;2023-04-06T04:35:37;100921.47;;;4.97;44.07
68822;BME280;55834;50.870;4.606;2023-04-06T04:38:02;100922.38;;;5.07;43.48
68822;BME280;55834;50.870;4.606;2023-04-06T04:40:27;100916.25;;;5.11;44.79
68822;BME280;55834;50.870;4.606;2023-04-06T04:42:53;100911.88;;;5.13;43.71
68822;BME280;55834;50.870;4.606;2023-04-06T04:45:18;100924.06;;;5.17;44.06
68822;BME280;55834;50.870;4.606;2023-04-06T04:47:43;100921.47;;;4.91;43.78
68822;BME280;55834;50.870;4.606;2023-04-06T04:50:09;100918.84;;;5.02;44.51
68822;BME280;55834;50.870;4.606;2023-04-06T04:52:35;100915.38;;;4.91;44.13
68822;BME280;55834;50.870;4.606;2023-04-06T04:55:01;100917.09;;;4.98;44.39
68822;BME280;55834;50.870;4.606;2023-04-06T04:57:26;100922.31;;;5.06;44.37
68822;BME280;55834;50.870;4.606;2023-04-06T04:59:51;100916.25;;;5.11;44.27
68822;BME280;55834;50.870;4.606;2023-04-06T05:02:17;100917.13;;;5.07;44.63
68822;BME280;55834;50.870;4.606;2023-04-06T05:04:42;100917.97;;;5.20;45.19
68822;BME280;55834;50.870;4.606;2023-04-06T05:07:08;100918.84;;;5.01;45.11
68822;BME280;55834;50.870;4.606;2023-04-06T05:09:34;100924.09;;;5.13;45.23
68822;BME280;55834;50.870;4.606;2023-04-06T05:12:00;100915.34;;;5.17;44.64
68822;BME280;55834;50.870;4.606;2023-04-06T05:14:27;100919.69;;;5.24;44.52
68822;BME280;55834;50.870;4.606;2023-04-06T05:16:52;100917.91;;;5.34;44.47
68822;BME280;55834;50.870;4.606;2023-04-06T05:19:18;100917.91;;;5.29;43.93
68822;BME280;55834;50.870;4.606;2023-04-06T05:21:43;100917.91;;;5.34;44.32
68822;BME280;55834;50.870;4.606;2023-04-06T05:24:09;100915.34;;;5.17;44.66
68822;BME280;55834;50.870;4.606;2023-04-06T05:26:35;100917.88;;;5.35;44.47
68822;BME280;55834;50.870;4.606;2023-04-06T05:29:00;100921.38;;;5.45;44.32
68822;BME280;55834;50.870;4.606;2023-04-06T05:31:26;100924.81;;;5.50;44.31
68822;BME280;55834;50.870;4.606;2023-04-06T05:33:51;100917.88;;;5.48;44.53
68822;BME280;55834;50.870;4.606;2023-04-06T05:36:17;100923.06;;;5.54;45.03
68822;BME280;55834;50.870;4.606;2023-04-06T05:38:42;100922.16;;;5.61;45.04
68822;BME280;55834;50.870;4.606;2023-04-06T05:41:07;100923.88;;;5.63;45.42
68822;BME280;55834;50.870;4.606;2023-04-06T05:43:33;100920.41;;;5.63;45.95
68822;BME280;55834;50.870;4.606;2023-04-06T05:45:58;100923.88;;;5.63;45.45
68822;BME280;55834;50.870;4.606;2023-04-06T05:48:24;100921.28;;;5.56;45.93
68822;BME280;55834;50.870;4.606;2023-04-06T05:50:50;100923.91;;;5.57;45.88
68822;BME280;55834;50.870;4.606;2023-04-06T05:53:16;100919.53;;;5.65;46.09
68822;BME280;55834;50.870;4.606;2023-04-06T05:55:41;100922.97;;;5.72;45.65
68822;BME280;55834;50.870;4.606;2023-04-06T05:58:06;100923.81;;;5.77;45.70
68822;BME280;55834;50.870;4.606;2023-04-06T06:00:32;100924.66;;;5.82;45.72
68822;BME280;55834;50.870;4.606;2023-04-06T06:02:57;100922.94;;;5.78;45.90
68822;BME280;55834;50.870;4.606;2023-04-06T06:05:23;100923.00;;;5.66;44.96
68822;BME280;55834;50.870;4.606;2023-04-06T06:07:52;100922.94;;;5.78;46.07
68822;BME280;55834;50.870;4.606;2023-04-06T06:10:17;100918.59;;;5.77;46.22
68822;BME280;55834;50.870;4.606;2023-04-06T06:12:43;100919.47;;;5.70;46.16
68822;BME280;55834;50.870;4.606;2023-04-06T06:15:08;100919.47;;;5.70;46.92
68822;BME280;55834;50.870;4.606;2023-04-06T06:17:34;100917.63;;;5.89;46.43
68822;BME280;55834;50.870;4.606;2023-04-06T06:19:59;100914.19;;;5.78;46.36
68822;BME280;55834;50.870;4.606;2023-04-06T06:22:25;100916.84;;;5.79;46.54
68822;BME280;55834;50.870;4.606;2023-04-06T06:24:50;100923.78;;;5.82;46.42
68822;BME280;55834;50.870;4.606;2023-04-06T06:27:16;100908.94;;;5.85;46.13
68822;BME280;55834;50.870;4.606;2023-04-06T06:29:41;100917.50;;;6.09;45.89
68822;BME280;55834;50.870;4.606;2023-04-06T06:32:06;100912.22;;;6.14;45.76
68822;BME280;55834;50.870;4.606;2023-04-06T06:34:34;100912.16;;;6.26;45.45
68822;BME280;55834;50.870;4.606;2023-04-06T06:37:05;100910.34;;;6.29;45.83
68822;BME280;55834;50.870;4.606;2023-04-06T06:39:31;100912.16;;;6.21;45.25
68822;BME280;55834;50.870;4.606;2023-04-06T06:41:56;100915.63;;;6.25;46.27
68822;BME280;55834;50.870;4.606;2023-04-06T06:44:22;100920.19;;;6.03;45.67
68822;BME280;55834;50.870;4.606;2023-04-06T06:46:47;100923.56;;;6.17;46.38
68822;BME280;55834;50.870;4.606;2023-04-06T06:49:13;100922.56;;;6.33;45.84
68822;BME280;55834;50.870;4.606;2023-04-06T06:51:39;100922.59;;;6.32;45.68
68822;BME280;55834;50.870;4.606;2023-04-06T06:54:05;100916.59;;;6.15;45.64
68822;BME280;55834;50.870;4.606;2023-04-06T06:56:30;100929.00;;;5.88;46.90
68822;BME280;55834;50.870;4.606;2023-04-06T06:58:56;100919.16;;;6.19;47.47
68822;BME280;55834;50.870;4.606;2023-04-06T07:01:21;100917.41;;;6.21;47.37
68822;BME280;55834;50.870;4.606;2023-04-06T07:03:46;100916.47;;;6.28;47.91
68822;BME280;55834;50.870;4.606;2023-04-06T07:06:12;100918.22;;;6.29;48.50
68822;BME280;55834;50.870;4.606;2023-04-06T07:08:37;100916.28;;;6.53;47.90
68822;BME280;55834;50.870;4.606;2023-04-06T07:11:03;100904.09;;;6.49;47.88
68822;BME280;55834;50.870;4.606;2023-04-06T07:13:28;100909.28;;;6.55;47.47
68822;BME280;55834;50.870;4.606;2023-04-06T07:15:54;100908.44;;;6.50;48.14
68822;BME280;55834;50.870;4.606;2023-04-06T07:18:20;100908.31;;;6.64;49.33
68822;BME280;55834;50.870;4.606;2023-04-06T07:20:46;100907.41;;;6.72;49.60
68822;BME280;55834;50.870;4.606;2023-04-06T07:23:11;100911.72;;;6.78;50.16
68822;BME280;55834;50.870;4.606;2023-04-06T07:25:37;100908.97;;;6.90;50.41
68822;BME280;55834;50.870;4.606;2023-04-06T07:28:03;100914.19;;;6.92;50.81
68822;BME280;55834;50.870;4.606;2023-04-06T07:30:29;100914.34;;;6.78;50.82
68822;BME280;55834;50.870;4.606;2023-04-06T07:32:54;100910.69;;;6.91;51.51
68822;BME280;55834;50.870;4.606;2023-04-06T07:35:25;100917.69;;;6.92;51.71
68822;BME280;55834;50.870;4.606;2023-04-06T07:37:51;100907.28;;;6.85;52.35
68822;BME280;55834;50.870;4.606;2023-04-06T07:40:17;100904.53;;;6.94;53.06
68822;BME280;55834;50.870;4.606;2023-04-06T07:42:43;100912.47;;;6.88;52.85
68822;BME280;55834;50.870;4.606;2023-04-06T07:45:09;100908.22;;;6.74;53.60
68822;BME280;55834;50.870;4.606;2023-04-06T07:47:34;100909.09;;;6.78;54.04
68822;BME280;55834;50.870;4.606;2023-04-06T07:50:00;100904.78;;;6.72;54.34
68822;BME280;55834;50.870;4.606;2023-04-06T07:52:25;100907.50;;;6.59;54.02
68822;BME280;55834;50.870;4.606;2023-04-06T07:54:51;100910.81;;;6.81;54.74
68822;BME280;55834;50.870;4.606;2023-04-06T07:57:18;100906.75;;;6.40;54.63
68822;BME280;55834;50.870;4.606;2023-04-06T07:59:43;100916.81;;;5.78;56.66
68822;BME280;55834;50.870;4.606;2023-04-06T08:02:09;100904.13;;;6.43;56.50
68822;BME280;55834;50.870;4.606;2023-04-06T08:04:35;100909.91;;;6.83;56.20
68822;BME280;55834;50.870;4.606;2023-04-06T08:07:00;100899.53;;;6.71;55.98
68822;BME280;55834;50.870;4.606;2023-04-06T08:09:26;100905.19;;;6.19;57.08
68822;BME280;55834;50.870;4.606;2023-04-06T08:11:52;100905.31;;;6.03;58.52
68822;BME280;55834;50.870;4.606;2023-04-06T08:14:17;100902.53;;;6.22;58.64
68822;BME280;55834;50.870;4.606;2023-04-06T08:16:42;100901.41;;;6.53;58.14
68822;BME280;55834;50.870;4.606;2023-04-06T08:19:08;100900.59;;;6.45;58.22
68822;BME280;55834;50.870;4.606;2023-04-06T08:21:35;100908.44;;;6.48;59.32
68822;BME280;55834;50.870;4.606;2023-04-06T08:24:00;100908.34;;;6.59;58.66
68822;BME280;55834;50.870;4.606;2023-04-06T08:26:26;100909.13;;;6.75;58.22
68822;BME280;55834;50.870;4.606;2023-04-06T08:28:52;100907.44;;;6.65;57.83
68822;BME280;55834;50.870;4.606;2023-04-06T08:31:17;100905.81;;;6.50;57.94
68822;BME280;55834;50.870;4.606;2023-04-06T08:33:43;100908.13;;;6.87;58.40
68822;BME280;55834;50.870;4.606;2023-04-06T08:36:12;100903.97;;;6.61;58.62
68822;BME280;55834;50.870;4.606;2023-04-06T08:38:39;100904.84;;;6.60;58.72
68822;BME280;55834;50.870;4.606;2023-04-06T08:41:12;100903.94;;;6.66;59.51
68822;BME280;55834;50.870;4.606;2023-04-06T08:43:43;100898.91;;;6.40;60.56
68822;BME280;55834;50.870;4.606;2023-04-06T08:46:09;100907.41;;;6.72;59.98
68822;BME280;55834;50.870;4.606;2023-04-06T08:48:36;100905.47;;;6.90;59.10
68822;BME280;55834;50.870;4.606;2023-04-06T08:51:02;100907.88;;;7.08;59.38
68822;BME280;55834;50.870;4.606;2023-04-06T08:53:27;100902.31;;;6.52;58.88
68822;BME280;55834;50.870;4.606;2023-04-06T08:55:54;100903.28;;;6.41;61.48
68822;BME280;55834;50.870;4.606;2023-04-06T08:58:20;100908.19;;;6.79;60.45
68822;BME280;55834;50.870;4.606;2023-04-06T09:00:46;100906.00;;;7.19;60.18
68822;BME280;55834;50.870;4.606;2023-04-06T09:03:12;100898.00;;;7.30;59.07
68822;BME280;55834;50.870;4.606;2023-04-06T09:05:39;100910.13;;;7.40;59.33
68822;BME280;55834;50.870;4.606;2023-04-06T09:08:05;100901.81;;;7.03;58.84
68822;BME280;55834;50.870;4.606;2023-04-06T09:10:32;100900.09;;;7.02;59.97
68822;BME280;55834;50.870;4.606;2023-04-06T09:13:07;100901.06;;;6.92;60.59
68822;BME280;55834;50.870;4.606;2023-04-06T09:15:33;100902.25;;;6.59;61.31
68822;BME280;55834;50.870;4.606;2023-04-06T09:17:59;100906.56;;;6.64;61.81
68822;BME280;55834;50.870;4.606;2023-04-06T09:20:25;100905.16;;;6.22;62.67
68822;BME280;55834;50.870;4.606;2023-04-06T09:22:52;100903.09;;;6.59;62.78
68822;BME280;55834;50.870;4.606;2023-04-06T09:25:20;100901.19;;;6.79;62.31
68822;BME280;55834;50.870;4.606;2023-04-06T09:27:46;100904.03;;;6.55;62.34
68822;BME280;55834;50.870;4.606;2023-04-06T09:30:12;100904.09;;;6.47;62.09
68822;BME280;55834;50.870;4.606;2023-04-06T09:32:49;100906.94;;;6.21;64.06
68822;BME280;55834;50.870;4.606;2023-04-06T09:35:15;100902.41;;;6.40;63.50
68822;BME280;55834;50.870;4.606;2023-04-06T09:37:44;100902.09;;;6.78;62.38
68822;BME280;55834;50.870;4.606;2023-04-06T09:40:10;100890.78;;;6.72;62.52
68822;BME280;55834;50.870;4.606;2023-04-06T09:42:35;100886.63;;;6.46;63.81
68822;BME280;55834;50.870;4.606;2023-04-06T09:45:02;100890.06;;;6.53;64.29
68822;BME280;55834;50.870;4.606;2023-04-06T09:47:28;100887.19;;;6.77;63.21
68822;BME280;55834;50.870;4.606;2023-04-06T09:49:59;100883.44;;;7.03;63.38
68822;BME280;55834;50.870;4.606;2023-04-06T09:52:31;100885.78;;;7.26;61.97
68822;BME280;55834;50.870;4.606;2023-04-06T09:55:02;100883.94;;;7.34;62.25
68822;BME280;55834;50.870;4.606;2023-04-06T09:57:45;100877.25;;;7.09;60.85
68822;BME280;55834;50.870;4.606;2023-04-06T10:00:12;100880.66;;;6.29;64.58
68822;BME280;55834;50.870;4.606;2023-04-06T10:05:57;100870.28;;;6.15;63.80
68822;BME280;55834;50.870;4.606;2023-04-06T10:08:27;100875.66;;;5.94;63.75
68822;BME280;55834;50.870;4.606;2023-04-06T10:10:54;100877.66;;;5.56;64.63
68822;BME280;55834;50.870;4.606;2023-04-06T10:13:20;100876.53;;;5.97;63.49
68822;BME280;55834;50.870;4.606;2023-04-06T10:15:46;100876.50;;;5.99;63.33
68822;BME280;55834;50.870;4.606;2023-04-06T10:18:13;100868.69;;;5.94;64.32
68822;BME280;55834;50.870;4.606;2023-04-06T10:20:43;100871.41;;;5.77;65.80
68822;BME280;55834;50.870;4.606;2023-04-06T10:23:13;100866.03;;;6.00;63.93
68822;BME280;55834;50.870;4.606;2023-04-06T10:25:54;100864.19;;;6.10;64.00
68822;BME280;55834;50.870;4.606;2023-04-06T10:28:20;100862.78;;;5.61;65.11
68822;BME280;55834;50.870;4.606;2023-04-06T10:30:46;100854.75;;;5.89;64.56
68822;BME280;55834;50.870;4.606;2023-04-06T10:33:19;100859.75;;;6.17;64.27
68822;BME280;55834;50.870;4.606;2023-04-06T10:35:46;100862.44;;;6.12;63.94
68822;BME280;55834;50.870;4.606;2023-04-06T10:38:11;100864.53;;;5.62;65.01
68822;BME280;55834;50.870;4.606;2023-04-06T10:40:40;100859.81;;;6.12;65.21
68822;BME280;55834;50.870;4.606;2023-04-06T10:43:21;100864.19;;;6.11;65.26
68822;BME280;55834;50.870;4.606;2023-04-06T10:45:57;100852.63;;;6.37;65.03
68822;BME280;55834;50.870;4.606;2023-04-06T10:48:42;100853.22;;;6.65;63.83
68822;BME280;55834;50.870;4.606;2023-04-06T10:51:10;100856.69;;;6.69;64.57
68822;BME280;55834;50.870;4.606;2023-04-06T10:53:36;100849.50;;;6.89;63.59
68822;BME280;55834;50.870;4.606;2023-04-06T10:56:02;100852.22;;;6.78;63.57
68822;BME280;55834;50.870;4.606;2023-04-06T10:58:28;100853.34;;;6.48;64.54
68822;BME280;55834;50.870;4.606;2023-04-06T11:00:54;100847.09;;;6.69;65.32
68822;BME280;55834;50.870;4.606;2023-04-06T11:03:20;100843.34;;;6.90;65.44
68822;BME280;55834;50.870;4.606;2023-04-06T11:05:50;100841.81;;;6.72;65.40
68822;BME280;55834;50.870;4.606;2023-04-06T11:08:27;100853.19;;;5.62;67.34
68822;BME280;55834;50.870;4.606;2023-04-06T11:11:07;100834.22;;;6.39;65.87
68822;BME280;55834;50.870;4.606;2023-04-06T11:13:45;100841.94;;;6.54;64.27
68822;BME280;55834;50.870;4.606;2023-04-06T11:16:33;100831.09;;;6.00;66.59
68822;BME280;55834;50.870;4.606;2023-04-06T11:19:01;100832.88;;;5.92;66.71
68822;BME280;55834;50.870;4.606;2023-04-06T11:21:43;100829.06;;;6.28;67.02
68822;BME280;55834;50.870;4.606;2023-04-06T11:24:16;100833.91;;;5.74;68.38
68822;BME280;55834;50.870;4.606;2023-04-06T11:26:45;100831.09;;;6.00;67.94
68822;BME280;55834;50.870;4.606;2023-04-06T11:29:13;100824.94;;;6.05;67.01
68822;BME280;55834;50.870;4.606;2023-04-06T11:31:45;100826.53;;;6.20;65.79
68822;BME280;55834;50.870;4.606;2023-04-06T11:34:23;100817.16;;;5.92;67.10
68822;BME280;55834;50.870;4.606;2023-04-06T11:36:54;100814.53;;;5.93;66.13
68822;BME280;55834;50.870;4.606;2023-04-06T11:39:21;100809.81;;;6.32;66.10
68822;BME280;55834;50.870;4.606;2023-04-06T11:41:53;100809.19;;;6.04;66.96
68822;BME280;55834;50.870;4.606;2023-04-06T11:44:36;100814.97;;;6.41;66.16
68822;BME280;55834;50.870;4.606;2023-04-06T11:47:09;100808.63;;;6.65;64.96
68822;BME280;55834;50.870;4.606;2023-04-06T11:49:39;100804.69;;;6.17;65.61
68822;BME280;55834;50.870;4.606;2023-04-06T11:52:22;100806.31;;;6.34;66.18
68822;BME280;55834;50.870;4.606;2023-04-06T11:54:50;100804.28;;;6.60;66.10
68822;BME280;55834;50.870;4.606;2023-04-06T11:57:16;100798.78;;;6.86;65.20
68822;BME280;55834;50.870;4.606;2023-04-06T11:59:42;100798.09;;;6.70;65.98
68822;BME280;55834;50.870;4.606;2023-04-06T12:02:08;100789.41;;;6.63;65.56
68822;BME280;55834;50.870;4.606;2023-04-06T12:04:33;100796.50;;;6.52;64.84
68822;BME280;55834;50.870;4.606;2023-04-06T12:07:00;100794.13;;;6.29;66.22
68822;BME280;55834;50.870;4.606;2023-04-06T12:09:25;100786.66;;;6.74;65.64
68822;BME280;55834;50.870;4.606;2023-04-06T12:11:50;100806.28;;;6.36;64.65
68822;BME280;55834;50.870;4.606;2023-04-06T12:14:16;100795.66;;;6.50;64.99
68822;BME280;55834;50.870;4.606;2023-04-06T12:16:42;100792.50;;;6.17;66.00
68822;BME280;55834;50.870;4.606;2023-04-06T12:19:07;100790.28;;;5.68;67.60
68822;BME280;55834;50.870;4.606;2023-04-06T12:21:34;100778.94;;;5.66;67.83
68822;BME280;55834;50.870;4.606;2023-04-06T12:24:02;100788.88;;;6.29;67.51
68822;BME280;55834;50.870;4.606;2023-04-06T12:26:30;100785.50;;;6.16;66.25
68822;BME280;55834;50.870;4.606;2023-04-06T12:28:56;100779.25;;;6.28;66.25
68822;BME280;55834;50.870;4.606;2023-04-06T12:31:23;100776.00;;;6.06;67.51
68822;BME280;55834;50.870;4.606;2023-04-06T12:33:50;100770.94;;;5.83;68.12
68822;BME280;55834;50.870;4.606;2023-04-06T12:36:19;100767.69;;;6.47;67.81
68822;BME280;55834;50.870;4.606;2023-04-06T12:38:47;100769.94;;;5.96;68.54
68822;BME280;55834;50.870;4.606;2023-04-06T12:41:13;100768.25;;;5.91;67.16
68822;BME280;55834;50.870;4.606;2023-04-06T12:43:41;100762.53;;;6.41;67.05
68822;BME280;55834;50.870;4.606;2023-04-06T12:46:07;100747.78;;;7.07;66.18
68822;BME280;55834;50.870;4.606;2023-04-06T12:48:37;100756.44;;;7.13;65.78
68822;BME280;55834;50.870;4.606;2023-04-06T12:51:04;100753.44;;;7.39;65.20
68822;BME280;55834;50.870;4.606;2023-04-06T12:53:31;100761.44;;;6.61;66.07
68822;BME280;55834;50.870;4.606;2023-04-06T12:55:58;100759.53;;;5.92;67.88
68822;BME280;55834;50.870;4.606;2023-04-06T12:58:24;100754.75;;;6.32;68.26
68822;BME280;55834;50.870;4.606;2023-04-06T13:00:52;100755.16;;;6.75;67.04